KFSD/FSD METAR and TAF weather

Enter ICAO airport designator
Station Type Date Time Source
KFSD METAR 2020/02/27 14:27 UTC NOAA

KFSD 271427Z 04007KT 10SM FEW007 SCT070 M07/M09 A3013 RMK AO2 T10671094


Station Type Date Time Source
KFSD Decoded METAR 2020/02/27 14:27 UTC NOAA

SIOUX FALLS FOSS FIELD, SD, United States (KFSD) 43-35N 096-45W 434M
Feb 27, 2020 - 09:27 AM EST / 2020.02.27 1427 UTC
Wind: from the NE (040 degrees) at 8 MPH (7 KT):0
Visibility: 10 mile(s):0
Sky conditions: partly cloudy
Temperature: 19.9 F (-6.7 C)
Windchill: 10 F (-12 C):1
Dew Point: 15.1 F (-9.4 C)
Relative Humidity: 81%
Pressure (altimeter): 30.13 in. Hg (1020 hPa)
ob: KFSD 271427Z 04007KT 10SM FEW007 SCT070 M07/M09 A3013 RMK AO2 T10671094
cycle: 14

Station Type Date Time Source
KFSD TAF 2020/02/27 14:42 UTC NOAA

TAF
AMD KFSD 271339Z 2714/2812 05007KT P6SM SCT007 SCT070
FM271500 04007KT P6SM OVC007
FM271900 35006KT P6SM OVC012
FM280000 25004KT P6SM OVC015
FM280800 30005KT P6SM OVC010

Example: see airport list